Tiempo atmosférico en la estación meteorológica de Sevilla Aeropuerto, Sevilla (34 m.)



Fecha
DESCASC
Temp. máxima en grados centígrados (hora)
DESCASC
Temp. mínima en grados centígrados (hora)
DESCASC
Temp. media en grados centígrados
DESCASC
Racha de viento máxima en m/sg (hora)
DESCASC
Velocidad máxima media en intervalos de 10 minutos(hora)
DESCASC
Precipitaciones diarias en mm
DESCASC
Precipitaciones de 00:00 a 06:00 en mm
DESCASC
Precipitaciones de 06:00 a 12:00 en mm
DESCASC
Precipitaciones de 12:00 a 18:00 en mm
DESCASC
Precipitaciones de 18:00 a 24:00 en mm
DESCASC
19-05-2019 26.8 (16:10) 15.1 (06:40) 20.9 13.33 (19:10) 9.44 (19:30) 0 0 0 0 0
18-05-2019 25.8 (17:40) 11.4 (06:50) 18.6 15.28 (16:40) 8.06 (20:10) 0 0 0 0 0
17-05-2019 25.3 (19:30) 12.5 (07:20) 18.9 11.67 (01:20) 8.61 (01:20) 0 0 0 0 0
16-05-2019 32.8 (17:10) 15 (00:00) 23.9 16.11 (18:40) 11.39 (18:50) 0 0 0 0 0
15-05-2019 35.9 (17:30) 14.3 (00:00) 25.1 10.28 (18:40) 8.06 (19:20) 0 0 0 0 0
14-05-2019 34.1 (17:10) 15.5 (00:00) 24.8 8.33 (22:40) 5.83 (21:50) 0 0 0 0 0
13-05-2019 36.2 (18:40) 16 (00:00) 26.1 11.39 (13:30) 7.22 (11:30) 0 0 0 0 0
12-05-2019 34.4 (17:00) 18 (00:00) 26.2 10.28 (13:30) 6.11 (19:30) 0 0 0 0 0
11-05-2019 34.2 (19:10) 16.5 (00:00) 25.4 8.33 (15:10) 4.72 (14:40) 0 0 0 0 0
10-05-2019 31.5 (19:30) 13.9 (00:00) 22.7 6.11 (16:10) 4.17 (22:40) 0 0 0 0 0
09-05-2019 26.3 (17:20) 15.6 (00:00) 20.9 9.17 (20:00) 6.39 (20:50) 0 0 0 0 0
08-05-2019 25 (17:10) 15.1 (00:00) 20.1 13.33 (16:00) 8.61 (15:40) 0 0 0 0 0
07-05-2019 28.9 (18:00) 11.9 (00:00) 20.4 9.72 (15:10) 7.22 (19:40) 0 0 0 0 0
06-05-2019 26.8 (17:50) 14.6 (00:00) 20.7 9.72 (20:00) 7.22 (19:50) 0 0 0 0 0
05-05-2019 23 (17:20) 15 (00:00) 19 9.72 (18:20) 6.67 (20:00) 0 0 0 0 0
04-05-2019 25 (18:10) 16.6 (00:00) 20.8 10.83 (19:40) 7.78 (19:50) 0 0 0 0 0
03-05-2019 28.1 (16:00) 14.1 (00:00) 21.1 13.33 (18:40) 9.72 (18:40) 0 0 0 0 0
02-05-2019 31 (17:30) 13.5 (07:20) 22.3 11.39 (15:30) 7.22 (19:20) 0 0 0 0 0
01-05-2019 31.7 (19:30) 13.7 (00:00) 22.7 10.28 (20:00) 6.11 (20:10) 0 0 0 0 0
30-04-2019 30.8 (18:10) 12.2 (00:00) 21.5 6.11 (21:20) 5 (21:30) 0 0 0 0 0
29-04-2019 30.3 (17:40) 11.6 (00:00) 20.9 6.67 (21:30) 5 (21:40) 0 0 0 0 0
28-04-2019 28.6 (18:10) 11.2 (00:00) 19.9 11.67 (13:00) 7.78 (13:40) 0 0 0 0 0
27-04-2019 26.8 (18:30) 10 (00:00) 18.4 11.67 (17:10) 8.06 (10:30) 0 0 0 0 0
26-04-2019 22.6 (17:20) 6.9 (00:00) 14.8 9.17 (16:10) 5.83 (16:10) 0 0 0 0 0
25-04-2019 20.8 (15:50) 12 (00:00) 16.4 14.44 (00:10) 9.44 (00:10) 2.5 2.5 0 0 0
24-04-2019 17.3 (14:20) 8.8 (00:00) 13 18.89 (14:50) 13.06 (19:50) 12.9 0 0 5 7.9
23-04-2019 17.9 (16:50) 10.6 (00:00) 14.3 16.39 (14:40) 11.11 (14:40) 9.4 5.5 2.7 1.2 0

Gráficas

Temp. máximas Temp. mínimas Temp. medias Precipitaciones Rachas de viento máximas Velocidades máximas media en intervalos de 10 minutos

Datos horarios

Fecha y hora oficial Temperatura (ºC) Velocidad del viento (km/h) Dirección del viento Racha (km/h) Dirección de racha Precipitación (mm) Presión (hPa) Tendencia (hPa) Humedad (%)
2019-05-22 23:00:00 23.9 10 Oeste 28 Oeste 0 1012.3 1.6 34
2019-05-22 22:00:00 25.9 19 Oeste 28 Oeste 0 1011.6 0.8 34
2019-05-22 21:00:00 29.8 14 Oeste 24 Norte 0 1010.9 -0.2 21
2019-05-22 20:00:00 30.9 10 Norte 21 Oeste 0 1010.7 -0.7 20
2019-05-22 19:00:00 31.4 14 Noroeste 32 Norte 0 1010.8 -1 20
2019-05-22 18:00:00 30.9 5 Norte 28 Norte 0 1011.1 -1.4 22
2019-05-22 17:00:00 31.2 13 Noroeste 22 Oeste 0 1011.4 -1.5 24
2019-05-22 16:00:00 30.3 7 Sudoeste 26 Noroeste 0 1011.8 -1.5 26
2019-05-22 15:00:00 29 10 Oeste 26 Oeste 0 1012.5 -1 31
2019-05-22 14:00:00 28.6 8 Norte 17 Norte 0 1012.9 -0.7 33
2019-05-22 13:00:00 27.2 4 Sudoeste 13 Oeste 0 1013.3 -0.2 36
2019-05-22 12:00:00 25.7 4 Este 13 Norte 0 1013.5 0.5 43
2019-05-22 11:00:00 23.1 3 Este 13 Nordeste 0 1013.6 1 53
2019-05-22 10:00:00 20.9 3 Norte 11 Nordeste 0 1013.5 1.4 62
2019-05-22 09:00:00 18.8 0 Calma 8 Norte 0 1013 1 70
2019-05-22 08:00:00 15.5 0 Calma 8 Sudeste 0 1012.6 0.7 81
2019-05-22 07:00:00 13.8 7 Sudeste -- -- 0 1012.1 0.4 87
2019-05-22 06:00:00 13.9 8 Sudeste 13 Este 0 1012 0.2 88
2019-05-22 05:00:00 14.3 8 Sudeste 11 Este 0 1011.9 0 87
2019-05-22 04:00:00 15.3 8 Sudeste 9 Sudeste 0 1011.7 -0.1 85
2019-05-22 03:00:00 16.1 5 Sudeste 13 Sur 0 1011.8 -0.2 83
2019-05-22 02:00:00 17.6 10 Sur 18 Sur 0 1011.9 0.3 78
2019-05-22 01:00:00 18.3 13 Sur 18 Sur 0 1011.8 0.9 74
2019-05-22 00:00:00 19.5 10 Sur 17 Sudoeste 0 1012 1.7 66
2019-05-21 23:00:00 20.6 11 Sudoeste 22 Oeste 0 1011.6 2.1 59
2019-05-21 22:00:00 21.6 15 Sudoeste 33 Sudoeste 0 1010.9 1.6 52
2019-05-21 21:00:00 23.3 25 Sudoeste 39 Sudoeste 0 1010.3 1 48
2019-05-21 20:00:00 25.5 28 Sudoeste 48 Sudoeste 0 1009.5 0 40
2019-05-21 19:00:00 27.7 23 Sudoeste 39 Sudoeste 0 1009.3 -0.6 33
2019-05-21 18:00:00 28.8 15 Sudoeste 37 Sudoeste 0 1009.3 -1.1 28
2019-05-21 17:00:00 29.1 15 Sudoeste 28 Sudoeste 0 1009.5 -- 24
2019-05-21 16:00:00 28.7 15 Sudoeste 28 Oeste 0 1009.9 -1.4 26
2019-05-21 15:00:00 27.5 7 Noroeste -- -- -- 1010.4 -1 27
2019-05-21 14:00:00 -- -- -- -- -- -- -- -- --
2019-05-21 13:00:00 25.3 4 Nordeste -- -- -- 1011.3 -- 30
2019-05-21 12:00:00 23.7 3 Norte 15 Noroeste 0 1011.4 0 38
2019-05-21 11:00:00 22 6 Noroeste -- -- -- 1011.7 0.8 41
2019-05-21 10:00:00 -- -- -- -- -- -- -- -- --
2019-05-21 09:00:00 18.5 5 Oeste 11 Oeste 0 1011.4 1.1 58
2019-05-21 08:00:00 14.4 6 Sur 9 Sur 0 1010.9 0.8 80
2019-05-21 07:00:00 13 7 Sudeste 11 Sur 0 1010.5 0.5 83
2019-05-21 06:00:00 13.1 8 Sur 11 Sur 0 1010.3 0.2 83
2019-05-21 05:00:00 13.4 0 Calma 9 Sudeste 0 1010.1 0 82
2019-05-21 04:00:00 15.2 4 Sudoeste 9 Sur 0 1010 -0.2 75
2019-05-21 03:00:00 15.4 6 Sur 9 Sur 0 1010.1 0 76
2019-05-21 02:00:00 16.8 5 Sur 15 Sudoeste 0 1010.1 0.3 71
2019-05-21 01:00:00 17.7 9 Sur 18 Sur 0 1010.2 1.4 69
2019-05-21 00:00:00 18.4 12 Sur 22 Sur 0 1010.1 2.1 63
2019-05-20 23:00:00 19.5 13 Sudoeste 26 Sudoeste 0 1009.8 2.4 52
2019-05-20 22:00:00 21 19 Sudoeste 37 Sudoeste 0 1008.8 1.6 38
2019-05-20 21:00:00 23.7 19 Sudoeste 39 Sudoeste 0 1008 0.8 33
2019-05-20 20:00:00 25.9 28 Sudoeste 41 Sudoeste 0 1007.4 -0.2 28
2019-05-20 19:00:00 28.7 21 Oeste 42 Oeste 0 1007.2 -1 21
2019-05-20 18:00:00 29.1 14 Sudoeste 33 Oeste 0 1007.2 -1.8 17
2019-05-20 17:00:00 28.9 14 Oeste 32 Oeste 0 1007.6 -2 16
2019-05-20 16:00:00 27.9 16 Oeste 30 Oeste 0 1008.2 -1.8 17
2019-05-20 15:00:00 26.8 10 Noroeste 32 Oeste 0 1009 -1.1 19
2019-05-20 14:00:00 25.8 15 Sudoeste 30 Oeste 0 1009.6 -0.8 23
2019-05-20 13:00:00 24.6 12 Oeste 30 Oeste 0 1010 -0.2 26
2019-05-20 12:00:00 23.2 8 Oeste 18 Norte 0 1010.1 0.2 38
2019-05-20 11:00:00 20.8 5 Noroeste 13 Oeste 0 1010.4 1 59
2019-05-20 10:00:00 18.5 4 Noroeste 11 Noroeste 0 1010.2 1.3 78
2019-05-20 09:00:00 16.7 4 Noroeste 9 Noroeste 0 1009.9 1.1 84
2019-05-20 08:00:00 14.2 0 Calma -- -- 0 1009.4 0.5 93
2019-05-20 07:00:00 13.7 0 Calma -- -- 0 1008.9 -0.2 95
2019-05-20 06:00:00 14.4 0 Calma 8 Sur 0 1008.8 -0.6 92
2019-05-20 05:00:00 14.6 5 Sur 11 Sur 0 1008.9 -0.7 92
2019-05-20 04:00:00 15.9 7 Sur 17 Sur 0 1009.1 -0.7 87
2019-05-20 03:00:00 16.6 11 Sur 18 Sur 0 1009.4 -0.4 86
2019-05-20 02:00:00 16.8 10 Sur 18 Sur 0 1009.6 0.2 86
2019-05-20 01:00:00 17.3 15 Sudoeste 22 Sudoeste 0 1009.8 1 83
2019-05-20 00:00:00 17.7 15 Sudoeste 26 Sudoeste 0 1009.8 1.7 80
2019-05-19 23:00:00 18.5 14 Sur 24 Sudoeste 0 1009.4 1.8 72
2019-05-19 22:00:00 19.9 16 Sudoeste 32 Sudoeste 0 1008.8 1.4 66
2019-05-19 21:00:00 21.3 19 Sudoeste 39 Sudoeste 0 1008.1 0.9 58
2019-05-19 20:00:00 22.4 27 Sudoeste 48 Sudoeste 0 1007.6 -0.4 52
2019-05-19 19:00:00 24.3 30 Sudoeste 45 Sudoeste 0 1007.4 -1 44
2019-05-19 18:00:00 24.1 23 Sur 42 Sur 0 1007.2 -2 45
2019-05-19 17:00:00 24.4 27 Sudoeste 41 Sudoeste 0 1008 -1.8 41
2019-05-19 16:00:00 26.1 10 Sudoeste 32 Sudoeste 0 1008.4 -1.8 24
2019-05-19 15:00:00 24.9 12 Sudoeste 33 Oeste 0 1009.2 -1.5 23
2019-05-19 14:00:00 23.6 13 Sudoeste 28 Sudoeste 0 1009.8 -1.2 25
2019-05-19 13:00:00 22 9 Oeste 21 Noroeste 0 1010.2 -0.7 28
2019-05-19 12:00:00 20.6 7 Noroeste 18 Oeste 0 1010.7 0 35
2019-05-19 11:00:00 18.9 4 Noroeste 17 Noroeste 0 1011 0.5 42
2019-05-19 10:00:00 17.5 10 Noroeste 21 Noroeste 0 1010.9 0.9 46
2019-05-19 09:00:00 16.5 13 Noroeste 21 Oeste 0 1010.7 1 49
2019-05-19 08:00:00 15.4 13 Noroeste 21 Noroeste 0 1010.5 0.6 54
2019-05-19 07:00:00 15.4 15 Noroeste 22 Noroeste 0 1010 0.2 53
2019-05-19 06:00:00 15.7 13 Oeste 18 Oeste 0 1009.7 -0.5 51
2019-05-19 05:00:00 15.9 13 Oeste 21 Noroeste 0 1009.9 -0.4 50
2019-05-19 04:00:00 16.3 14 Noroeste 28 Noroeste 0 1009.8 -0.7 48
2019-05-19 03:00:00 16.9 19 Noroeste 28 Oeste 0 1010.2 -0.4 44
2019-05-19 02:00:00 16.9 14 Noroeste 21 Noroeste 0 1010.3 0.2 45
2019-05-19 01:00:00 16.8 10 Noroeste 22 Noroeste 0 1010.5 0.8 45
2019-05-19 00:00:00 18.2 18 Noroeste 28 Noroeste 0 1010.6 1.4 41
2019-05-18 23:00:00 19.3 22 Noroeste 30 Noroeste 0 1010.1 1.6 36
2019-05-18 22:00:00 20.5 18 Noroeste 32 Noroeste 0 1009.7 1.5 32
2019-05-18 21:00:00 22.2 24 Noroeste 39 Noroeste 0 1009.2 1.2 28
2019-05-18 20:00:00 23.8 26 Noroeste 35 Noroeste 0 1008.5 0.4 24
2019-05-18 19:00:00 24.2 22 Noroeste 37 Noroeste 0 1008.2 -0.7 24
2019-05-18 18:00:00 25.3 24 Noroeste 39 Oeste 0 1008 -1.3 21
2019-05-18 17:00:00 25.3 22 Noroeste 55 Oeste 0 1008.1 -1.8 20
2019-05-18 16:00:00 24.7 20 Noroeste 41 Oeste 0 1008.9 -1.3 20
2019-05-18 15:00:00 23.4 18 Noroeste 39 Noroeste 0 1009.3 -1.1 22
2019-05-18 14:00:00 22.2 20 Oeste 37 Noroeste 0 1009.9 -0.7 25
2019-05-18 13:00:00 21 23 Noroeste 37 Noroeste 0 1010.2 -0.4 27
2019-05-18 12:00:00 19.3 10 Oeste 26 Oeste 0 1010.4 -0.1 36
2019-05-18 11:00:00 17.9 13 Noroeste 26 Norte 0 1010.6 0.6 41
2019-05-18 10:00:00 16.3 15 Norte 24 Norte 0 1010.6 1.3 47
2019-05-18 09:00:00 15.3 16 Noroeste 22 Noroeste 0 1010.5 1.5 52
2019-05-18 08:00:00 13.8 13 Noroeste 21 Noroeste 0 1010 1.2 58
2019-05-18 07:00:00 13 7 Noroeste 24 Norte 0 1009.3 0.2 60
2019-05-18 06:00:00 13.2 11 Noroeste 18 Oeste 0 1009 -0.6 59
2019-05-18 05:00:00 13.3 13 Oeste 17 Oeste 0 1008.8 -1 60
2019-05-18 04:00:00 14.9 8 Noroeste 22 Noroeste 0 1009.1 -0.9 52
2019-05-18 03:00:00 15.9 13 Noroeste 26 Noroeste 0 1009.6 -0.4 49
2019-05-18 02:00:00 16.9 19 Noroeste 32 Noroeste 0 1009.8 0.3 45
2019-05-18 01:00:00 17 10 Noroeste 18 Noroeste 0 1010 1.3 48
2019-05-18 00:00:00 18.6 17 Noroeste 28 Oeste 0 1010 1.9 40
2019-05-17 23:00:00 19.6 16 Noroeste 26 Noroeste 0 1009.5 1.4 36
2019-05-17 22:00:00 21 18 Noroeste 28 Noroeste 0 1008.7 0.5 33
2019-05-17 21:00:00 22.8 18 Norte 30 Noroeste 0 1008.1 -0.7 26
2019-05-17 20:00:00 24.5 18 Noroeste 32 Noroeste 0 1008.1 -1.1 22
2019-05-17 19:00:00 24.8 12 Oeste 32 Norte 0 1008.2 -1.7 21
2019-05-17 18:00:00 24.6 14 Noroeste 33 Noroeste 0 1008.8 -1.6 23
2019-05-17 17:00:00 23.7 16 Oeste 30 Noroeste 0 1009.2 -1.4 23
2019-05-17 16:00:00 23.8 12 Noroeste 35 Norte 0 1009.9 -1 26
2019-05-17 15:00:00 22.9 19 Noroeste 30 Noroeste 0 1010.4 -0.8 28
2019-05-17 14:00:00 21.9 19 Noroeste 35 Noroeste 0 1010.6 -0.6 30
2019-05-17 13:00:00 20.7 13 Norte 28 Noroeste 0 1010.9 -0.3 32
2019-05-17 12:00:00 19.2 13 Norte 26 Norte 0 1011.2 0.2 36
2019-05-17 11:00:00 18.1 9 Norte 28 Noroeste 0 1011.2 0.5 41
2019-05-17 10:00:00 16.5 12 Noroeste 22 Noroeste 0 1011.2 1.4 47
2019-05-17 09:00:00 15 10 Noroeste 18 Oeste 0 1011 1.8 54
2019-05-17 08:00:00 13 8 Oeste 22 Noroeste 0 1010.7 1.5 61
2019-05-17 07:00:00 12.7 13 Noroeste 21 Noroeste 0 1009.8 0.7 60
2019-05-17 06:00:00 13.2 14 Noroeste 22 Norte 0 1009.2 0.6 58
2019-05-17 05:00:00 14 18 Norte 37 Noroeste 0 1009.2 0.4 56
2019-05-17 04:00:00 15 23 Norte 35 Norte 0 1009.1 0.7 56
2019-05-17 03:00:00 15.9 19 Noroeste 41 Norte 0 1008.6 0.7 57
2019-05-17 02:00:00 17.2 26 Norte 42 Norte 0 1008.8 2 52
2019-05-17 01:00:00 18.6 21 Noroeste 41 Noroeste 0 1008.4 2.3 52
2019-05-17 00:00:00 20.7 30 Noroeste 42 Noroeste 0 1007.9 2.9 50
2019-05-16 23:00:00 23.4 23 Noroeste 41 Noroeste 0 1006.8 2.5 37
2019-05-16 22:00:00 25.1 27 Noroeste 41 Oeste 0 1006.1 1.7 29
2019-05-16 21:00:00 26.9 33 Oeste 46 Sudoeste 0 1005 0.7 27
2019-05-16 20:00:00 26.6 32 Sudoeste 58 Sudoeste 0 1004.3 -0.1 41
2019-05-16 19:00:00 27.4 40 Sudoeste 58 Sudoeste 0 1004.4 -0.5 40
2019-05-16 18:00:00 29.2 35 Sudoeste 54 Sudoeste 0 1004.3 -1.1 36
2019-05-16 17:00:00 32 33 Sudoeste 50 Sudoeste 0 1004.4 -1.8 18
2019-05-16 16:00:00 30.4 31 Sudoeste 50 Sudoeste 0 1004.9 -2 30
2019-05-16 15:00:00 30.6 23 Sudoeste 39 Sudoeste 0 1005.4 -1.8 26
2019-05-16 14:00:00 28.6 20 Sur 39 Sudoeste 0 1006.2 -0.8 33
2019-05-16 13:00:00 26.2 20 Sudoeste 33 Sudoeste 0 1006.9 0.4 37
2019-05-16 12:00:00 23.5 21 Sudoeste 33 Sudoeste 0 1007.2 0.9 44
2019-05-16 11:00:00 22.1 18 Sudoeste 26 Sudoeste 0 1007 0.9 48
2019-05-16 10:00:00 21.4 11 Sur 17 Sur 0 1006.5 0.7 61
2019-05-16 09:00:00 19 10 Sur 13 Sur 0 1006.3 0.5 73
2019-05-16 08:00:00 16.1 6 Sur 11 Sur 0 1006.1 0.2 85
2019-05-16 07:00:00 16.5 7 Sur 13 Sudoeste 0 1005.8 -0.2 81
2019-05-16 06:00:00 16.9 8 Sudoeste 15 Oeste 0 1005.8 -0.3 80
2019-05-16 05:00:00 16.7 0 Calma 5 Sudoeste 0 1005.9 -0.4 75
2019-05-16 04:00:00 17.8 6 Sur 9 Sur 0 1006 -0.5 68
2019-05-16 03:00:00 19.5 0 Calma 13 Sudoeste 0 1006.1 -0.5 64
2019-05-16 02:00:00 20.8 11 Sur 28 Sur 0 1006.3 -0.1 63
2019-05-16 01:00:00 21.4 20 Sur 28 Sur 0 1006.5 0.7 62
2019-05-16 00:00:00 22.6 9 Sur 24 Sudoeste 0 1006.6 1.2 54
2019-05-15 23:00:00 24.5 18 Sudoeste 24 Sudoeste 0 1006.4 1.4 45
2019-05-15 22:00:00 26.3 18 Sudoeste 26 Sudoeste 0 1005.8 0.5 38
2019-05-15 21:00:00 29.2 14 Sur 35 Sudoeste 0 1005.4 0.1 30
2019-05-15 20:00:00 31.6 27 Sudoeste 37 Sudoeste 0 1005 -0.8 26
2019-05-15 19:00:00 34 25 Sudoeste 37 Sudoeste 0 1005.3 -1.4 22
2019-05-15 18:00:00 35.1 22 Sudoeste 33 Sudoeste 0 1005.3 -2.2 21
2019-05-15 17:00:00 35.1 10 Sudoeste 26 Oeste 0 1005.8 -2.5 19
2019-05-15 16:00:00 34.3 11 Sudoeste 22 Sur 0 1006.7 -2.4 21
2019-05-15 15:00:00 32.6 12 Sudoeste 24 Oeste 0 1007.5 -2.1 24
2019-05-15 14:00:00 31 10 Sudoeste 18 Sudoeste 0 1008.3 -1.5 27
2019-05-15 13:00:00 28.6 5 Sur 15 Oeste 0 1009.1 -0.8 29
2019-05-15 12:00:00 26.5 4 Oeste 15 Oeste 0 1009.6 -0.1 33
2019-05-15 11:00:00 23.3 4 Noroeste 13 Noroeste 0 1009.8 0.5 43
2019-05-15 10:00:00 21.1 4 Noroeste 9 Noroeste 0 1009.9 1 49
2019-05-15 09:00:00 18.8 2 Oeste 5 Oeste 0 1009.7 0.8 58
2019-05-15 08:00:00 15.3 0 Calma 5 Noroeste 0 1009.3 0.4 71
2019-05-15 07:00:00 14.5 5 Oeste 8 Oeste 0 1008.9 -0.2 72
2019-05-15 06:00:00 15.7 0 Calma 8 Oeste 0 1008.9 -0.4 64
2019-05-15 05:00:00 17.4 0 Calma 8 Noroeste 0 1008.9 -0.8 57
2019-05-15 04:00:00 18 0 Calma 9 Sur 0 1009.1 -0.9 58
2019-05-15 03:00:00 20.2 8 Sudoeste 13 Oeste 0 1009.3 -0.7 47
2019-05-15 02:00:00 19.8 13 Oeste 15 Oeste 0 1009.7 -0.2 46
2019-05-15 01:00:00 22.8 13 Sudoeste 21 Sudoeste 0 1010 0.8 35
2019-05-15 00:00:00 22.8 9 Sudoeste 21 Oeste 0 1010 1.5 35
2019-05-14 23:00:00 25 19 Oeste 30 Oeste 0 1009.9 1.5 30
2019-05-14 22:00:00 27 19 Oeste 28 Noroeste 0 1009.2 0.7 31
2019-05-14 21:00:00 29.9 12 Sudeste 18 Sudeste 0 1008.5 -0.2 23
2019-05-14 20:00:00 33.8 4 Sudeste 15 Sur 0 1008.4 -0.8 16
2019-05-14 19:00:00 33.5 8 Sudeste 24 Sur 0 1008.5 -1.3 17
2019-05-14 18:00:00 33.8 10 Sudoeste 24 Oeste 0 1008.7 -1.5 16
2019-05-14 17:00:00 33.5 9 Sudoeste 21 Oeste 0 1009.2 -1.6 16
2019-05-14 16:00:00 32.4 5 Nordeste 21 Norte 0 1009.8 -1.4 16
2019-05-14 15:00:00 31.6 4 Este 18 Sudeste 0 1010.2 -1.1 17
2019-05-14 14:00:00 30.3 6 Sur 17 Este 0 1010.8 -0.8 18
2019-05-14 13:00:00 29.1 8 Este 22 Este 0 1011.2 -0.4 20
2019-05-14 12:00:00 27.4 14 Este 24 Este 0 1011.3 -0.3 22
2019-05-14 11:00:00 25.5 15 Este 26 Este 0 1011.6 0.2 25
2019-05-14 10:00:00 23.3 17 Este 26 Este 0 1011.6 0.7 29
2019-05-14 09:00:00 19.4 13 Este 26 Este 0 1011.6 0.6 42
2019-05-14 08:00:00 17.2 16 Nordeste 24 Nordeste 0 1011.4 0.3 49
2019-05-14 07:00:00 16.5 12 Nordeste 18 Este 0 1010.9 -0.5 57
2019-05-14 06:00:00 16 9 Nordeste 17 Nordeste 0 1011 -0.4 69
2019-05-14 05:00:00 16.4 5 Norte 13 Norte 0 1011.1 -0.2 74
2019-05-14 04:00:00 17.5 0 Calma 11 Este 0 1011.4 1.1 71
2019-05-14 03:00:00 18.7 6 Este 9 Este 0 1011.4 1.5 71
2019-05-14 02:00:00 20.6 7 Sur 22 Sudoeste 0 1011.3 1.5 59
2019-05-14 01:00:00 22.7 15 Sudoeste 22 Sudoeste 0 1010.3 1.2 53
2019-05-14 00:00:00 24.1 13 Sudoeste 22 Sudoeste 0 1009.9 1.7 45
2019-05-13 23:00:00 26 12 Sudoeste 33 Oeste 0 1009.8 1.9 35
2019-05-13 22:00:00 27 21 Sudoeste 30 Sudoeste 0 1009.1 1 38
2019-05-13 21:00:00 31.3 21 Sudoeste 28 Sudoeste 0 1008.2 -0.2 29
2019-05-13 20:00:00 35.2 8 Sur 13 Sur 0 1007.9 -1 12
2019-05-13 19:00:00 35.9 6 Sur 17 Este 0 1008.1 -1.4 11
2019-05-13 18:00:00 36.1 8 Este 26 Este 0 1008.4 -2 11
2019-05-13 17:00:00 35.7 8 Este 24 Este 0 1008.9 -2.2 11
2019-05-13 16:00:00 34.9 13 Este 32 Este 0 1009.5 -2.5 12
2019-05-13 15:00:00 33.9 14 Este 30 Este 0 1010.4 -2.2 13
2019-05-13 14:00:00 32.5 20 Este 41 Este 0 1011.1 -1.8 17
2019-05-13 13:00:00 31.2 21 Este 37 Este 0 1012 -1 21
2019-05-13 12:00:00 29 23 Este 35 Este 0 1012.6 -0.5 27
2019-05-13 11:00:00 26.4 21 Nordeste 30 Este 0 1012.9 -0.1 33
2019-05-13 10:00:00 24.5 17 Este 26 Este 0 1013 0.5 36
2019-05-13 09:00:00 19.5 13 Nordeste 18 Nordeste 0 1013.1 0.5 53
2019-05-13 08:00:00 17 8 Nordeste 15 Nordeste 0 1013 0.1 61
2019-05-13 07:00:00 16.6 14 Nordeste 22 Nordeste 0 1012.5 -0.5 61
2019-05-13 06:00:00 17.3 14 Nordeste 21 Nordeste 0 1012.6 -0.4 59
2019-05-13 05:00:00 16.8 5 Norte 17 Nordeste 0 1012.9 -0.4 64
2019-05-13 04:00:00 17.7 11 Nordeste 13 Nordeste 0 1013 -0.3 68
2019-05-13 03:00:00 18.1 6 Este -- -- 0 1013 -0.6 67
2019-05-13 02:00:00 19.3 8 Este 9 Este 0 1013.3 0.1 64
2019-05-13 01:00:00 22.3 4 Sudoeste 17 Sudoeste 0 1013.3 0.9 46
2019-05-13 00:00:00 24 10 Sudoeste 18 Sudoeste 0 1013.6 1.4 43
2019-05-12 23:00:00 24.8 14 Sudoeste 21 Sudoeste 0 1013.2 1 42
2019-05-12 22:00:00 26.4 8 Este 13 Este 0 1012.4 -0.1 40
2019-05-12 21:00:00 30.6 10 Este 24 Este 0 1012.2 -0.4 28
2019-05-12 20:00:00 32.7 18 Este 30 Este 0 1012.2 -0.7 24
2019-05-12 19:00:00 33.7 22 Este 33 Este 0 1012.5 -1 20
2019-05-12 18:00:00 34 19 Este 35 Este 0 1012.6 -1.5 21
2019-05-12 17:00:00 34.3 16 Este 30 Este 0 1012.9 -1.7 21
2019-05-12 16:00:00 33.6 21 Este 33 Este 0 1013.5 -1.6 22
2019-05-12 15:00:00 33.2 18 Este 30 Este 0 1014.1 -1.3 24
2019-05-12 14:00:00 32 19 Este 37 Este 0 1014.6 -0.7 25
2019-05-12 13:00:00 31.4 15 Este 30 Este 0 1015.1 -0.1 26
2019-05-12 12:00:00 29.8 19 Este 32 Este 0 1015.4 0.4 30
2019-05-12 11:00:00 28 18 Este 32 Este 0 1015.3 0.7 35
2019-05-12 10:00:00 26 20 Este 28 Este 0 1015.2 0.8 43
2019-05-12 09:00:00 23.3 18 Este 28 Este 0 1015 0.9 53
2019-05-12 08:00:00 19.7 15 Nordeste 26 Nordeste 0 1014.6 0.8 65
2019-05-12 07:00:00 18.9 19 Nordeste 26 Nordeste 0 1014.4 0.8 66
2019-05-12 06:00:00 18.2 14 Nordeste 18 Nordeste 0 1014.1 0.5 65
2019-05-12 05:00:00 19.5 12 Este 15 Este 0 1013.8 0.4 59
2019-05-12 04:00:00 20.3 4 Este 17 Este 0 1013.6 0.2 55
2019-05-12 03:00:00 21.3 11 Este 18 Este 0 1013.6 0.2 45
2019-05-12 02:00:00 21.7 10 Nordeste 17 Nordeste 0 1013.4 0.4 46
2019-05-12 01:00:00 23.3 12 Nordeste 18 Nordeste 0 1013.4 1.1 44
2019-05-12 00:00:00 23.1 12 Nordeste 17 Norte 0 1013.4 1.5 51
2019-05-11 23:00:00 24 6 Este 9 Este 0 1013 1.4 50
2019-05-11 22:00:00 25.8 -- -- -- -- 0 1012.3 0.6 47
2019-05-11 21:00:00 31.5 7 Sudeste 13 Este 0 1011.9 -0.1 29
2019-05-11 20:00:00 33.9 8 Este 18 Este 0 1011.6 -0.7 22
2019-05-11 19:00:00 33.8 11 Este 22 Este 0 1011.7 -1.1 22
2019-05-11 18:00:00 33.4 11 Nordeste 28 Nordeste 0 1012 -1.3 23
2019-05-11 17:00:00 33.1 12 Nordeste 26 Nordeste 0 1012.3 -1.5 22
2019-05-11 16:00:00 32.4 13 Nordeste 30 Este 0 1012.8 -1.6 22
2019-05-11 15:00:00 31.6 13 Nordeste 28 Nordeste 0 1013.3 -1.5 25
2019-05-11 14:00:00 30 12 Nordeste 28 Este 0 1013.8 -1.1 31
2019-05-11 13:00:00 28.7 13 Este 26 Nordeste 0 1014.4 -0.7 37
2019-05-11 12:00:00 26.9 14 Nordeste 24 Este 0 1014.8 0 41
2019-05-11 11:00:00 24.5 13 Nordeste 18 Nordeste 0 1014.9 0.5 49
2019-05-11 10:00:00 22 14 Nordeste 21 Nordeste 0 1015.1 1.3 57
2019-05-11 09:00:00 19.4 14 Nordeste 21 Nordeste 0 1014.8 1.3 66
2019-05-11 08:00:00 17.2 9 Nordeste 15 Nordeste 0 1014.4 0.9 74
2019-05-11 07:00:00 17.3 11 Nordeste 15 Nordeste 0 1013.8 0.5 75
2019-05-11 06:00:00 17.8 10 Nordeste 18 Nordeste 0 1013.5 0.1 73
2019-05-11 05:00:00 18.6 13 Norte 21 Nordeste 0 1013.5 0.2 72
2019-05-11 04:00:00 19.2 11 Nordeste 15 Nordeste 0 1013.3 0.1 72
2019-05-11 03:00:00 19.3 5 Nordeste 11 Nordeste 0 1013.4 0.1 71
2019-05-11 02:00:00 19.9 8 Norte 13 Noroeste 0 1013.3 0.5 69
2019-05-11 01:00:00 21.5 5 Norte 15 Norte 0 1013.2 1.6 63
2019-05-11 00:00:00 22.7 13 Norte 18 Norte 0 1013.3 2.8 58
2019-05-10 23:00:00 23.9 13 Noroeste 22 Norte 0 1012.8 2.6 53
2019-05-10 22:00:00 25.8 11 Norte 21 Noroeste 0 1011.6 1.2 48
2019-05-10 21:00:00 28.7 7 Sur 13 Sur 0 1010.5 -0.2 35
2019-05-10 20:00:00 30.6 3 Sudoeste 17 Noroeste 0 1010.2 -0.9 30
2019-05-10 19:00:00 30.8 3 Este 18 Oeste 0 1010.4 -1.4 29
2019-05-10 18:00:00 30.9 10 Oeste 21 Oeste 0 1010.7 -1.5 29
2019-05-10 17:00:00 30.4 8 Oeste 22 Oeste 0 1011.1 -1.8 31
2019-05-10 16:00:00 29 3 Norte 17 Norte 0 1011.8 -1.6 32
2019-05-10 15:00:00 27.4 6 Norte 18 Oeste 0 1012.2 -1.4 38
2019-05-10 14:00:00 26.1 6 Noroeste 18 Noroeste 0 1012.9 -0.6 45
2019-05-10 13:00:00 24.7 8 Oeste 21 Norte 0 1013.4 0 55
2019-05-10 12:00:00 23.8 5 Norte 21 Norte 0 1013.6 0.5 60
2019-05-10 11:00:00 21.9 6 Norte 17 Norte 0 1013.5 0.9 68
2019-05-10 10:00:00 20.1 8 Nordeste 18 Norte 0 1013.4 1.1 76
2019-05-10 09:00:00 17.3 8 Nordeste 13 Nordeste 0 1013.1 1 86
2019-05-10 08:00:00 14.9 0 Calma 13 Nordeste 0 1012.6 0.4 93
2019-05-10 07:00:00 13.9 6 Este 8 Este 0 1012.3 0.2 96
2019-05-10 06:00:00 14.2 5 Sudeste 8 Sudeste 0 1012.1 -0.2 94
2019-05-10 05:00:00 14.7 7 Sudeste 11 Sur 0 1012.2 -0.5 94
2019-05-10 04:00:00 15.2 7 Sur 11 Sur 0 1012.1 -0.7 93
2019-05-10 03:00:00 16.4 2 Sudoeste 8 Sur 0 1012.3 -0.7 90
2019-05-10 02:00:00 17.5 8 Sudoeste 15 Sudoeste 0 1012.7 0 86
2019-05-10 01:00:00 17.9 10 Sudoeste 15 Sur 0 1012.8 0.8 84
2019-05-10 00:00:00 18.5 11 Sur 17 Sudoeste 0 1013 1.4 82
2019-05-09 23:00:00 19.1 11 Sur 18 Sudoeste 0 1012.7 1.4 79
2019-05-09 22:00:00 20.4 16 Sudoeste 32 Sudoeste 0 1012 0.3 73
2019-05-09 21:00:00 22.1 22 Sudoeste 32 Sudoeste 0 1011.6 -0.4 65
2019-05-09 20:00:00 24.3 21 Sudoeste 33 Sudoeste 0 1011.3 -1.3 56
2019-05-09 19:00:00 25.9 19 Sudoeste 30 Sudoeste 0 1011.7 -1.5 50
2019-05-09 18:00:00 24.7 13 Sudoeste 24 Sudoeste 0 1012 -1.4 55
2019-05-09 17:00:00 25.8 12 Oeste 24 Oeste 0 1012.6 -1.2 52
2019-05-09 16:00:00 25 9 Sudoeste 24 Sudoeste 0 1013.2 -1.1 53
2019-05-09 15:00:00 23.9 13 Sudoeste 24 Sudoeste 0 1013.4 -0.8 57
2019-05-09 14:00:00 23.3 13 Sudoeste 26 Sudoeste 0 1013.8 -0.4 60
2019-05-09 13:00:00 21.4 12 Sudoeste 24 Sudoeste 0 1014.3 0.2 67
2019-05-09 12:00:00 20.4 13 Sudoeste 24 Oeste 0 1014.2 0.4 71
2019-05-09 11:00:00 20.5 14 Sudoeste 21 Sudoeste 0 1014.2 0.6 71
2019-05-09 10:00:00 19.5 14 Sudoeste 22 Sudoeste 0 1014.1 0.8 75
2019-05-09 09:00:00 17.7 10 Sur 17 Sudoeste 0 1013.8 0.6 85
2019-05-09 08:00:00 16.4 9 Sur 17 Sudoeste 0 1013.6 0.6 90
2019-05-09 07:00:00 16.1 12 Sudoeste 22 Sudoeste 0 1013.3 -0.1 91
2019-05-09 06:00:00 15.8 13 Sudoeste 18 Sudoeste 0 1013.2 -0.2 93
2019-05-09 05:00:00 15.8 13 Sur 21 Sur 0 1013 -0.5 92
2019-05-09 04:00:00 16.3 12 Sur 21 Sur 0 1013.4 -0.4 91
2019-05-09 03:00:00 16.4 12 Sur 18 Sudoeste 0 1013.4 -0.4 91
2019-05-09 02:00:00 16.9 10 Sudoeste 21 Sudoeste 0 1013.5 -0.1 88
2019-05-09 01:00:00 17.3 12 Sudoeste 18 Sur 0 1013.8 0.7 86
2019-05-09 00:00:00 17.8 9 Sur 28 Sudoeste 0 1013.8 1 83
2019-05-08 23:00:00 18.6 16 Sudoeste 30 Sudoeste 0 1013.6 1.2 76
2019-05-08 22:00:00 19.9 18 Sudoeste 30 Sudoeste 0 1013.1 0.9 63
2019-05-08 21:00:00 21 21 Sudoeste 37 Sudoeste 0 1012.8 0.7 57
2019-05-08 20:00:00 22.1 28 Sudoeste 39 Sudoeste 0 1012.4 0 47
2019-05-08 19:00:00 24.1 24 Sudoeste 39 Sudoeste 0 1012.2 -0.7 46
2019-05-08 18:00:00 24.8 26 Sudoeste 42 Sudoeste 0 1012.1 -1.1 52
2019-05-08 17:00:00 24.4 28 Sudoeste 45 Sudoeste 0 1012.4 -1.3 51
2019-05-08 16:00:00 24.2 31 Sudoeste 48 Sudoeste 0 1012.9 -1.3 49
2019-05-08 15:00:00 24 26 Sudoeste 42 Sudoeste 0 1013.2 -1.3 51
2019-05-08 14:00:00 23.3 23 Sudoeste 39 Oeste 0 1013.7 -0.4 55
2019-05-08 13:00:00 22 27 Sudoeste 41 Sudoeste 0 1014.2 -0.1 63
2019-05-08 12:00:00 20.4 22 Sudoeste 35 Sudoeste 0 1014.5 0.6 68
2019-05-08 11:00:00 21 18 Sudoeste 30 Sudoeste 0 1014.1 0.6 66
2019-05-08 10:00:00 19.6 14 Sudoeste 22 Sudoeste 0 1014.3 1.1 71
2019-05-08 09:00:00 16.4 16 Sudoeste 22 Sudoeste 0 1013.9 1 84
2019-05-08 08:00:00 15.5 9 Sur 17 Sudoeste 0 1013.5 0.3 87
2019-05-08 07:00:00 15.3 11 Sur 17 Sur 0 1013.2 0 91
2019-05-08 06:00:00 15.3 10 Sur 13 Sur 0 1012.9 -0.7 92
2019-05-08 05:00:00 15.8 9 Sur 18 Sudoeste 0 1013.2 -0.5 91
2019-05-08 04:00:00 16.4 13 Sur 21 Sur 0 1013.2 -0.3 89
2019-05-08 03:00:00 16.7 10 Sur 18 Sur 0 1013.6 -0.1 89
2019-05-08 02:00:00 16.8 12 Sur 18 Sur 0 1013.7 -0.1 88
2019-05-08 01:00:00 17.6 12 Sur 21 Sudoeste 0 1013.5 0.3 83
2019-05-08 00:00:00 18.2 11 Sudoeste 24 Sudoeste 0 1013.7 1.3 81
2019-05-07 23:00:00 18.8 18 Sudoeste 26 Sudoeste 0 1013.8 2 77
2019-05-07 22:00:00 19.6 21 Sudoeste 35 Sudoeste 0 1013.2 1.5 70
2019-05-07 21:00:00 21.5 20 Sudoeste 35 Sudoeste 0 1012.4 0.7 59
2019-05-07 20:00:00 24.1 22 Sudoeste 35 Sudoeste 0 1011.8 -0.4 52
2019-05-07 19:00:00 27.8 20 Sudoeste 32 Sudoeste 0 1011.7 -1.5 40
2019-05-07 18:00:00 28.8 13 Sudoeste 26 Oeste 0 1011.7 -2.5 34
2019-05-07 17:00:00 27.9 13 Oeste 32 Oeste 0 1012.2 -2.6 35
2019-05-07 16:00:00 26.9 15 Sudoeste 35 Oeste 0 1013.2 -2.2 40
2019-05-07 15:00:00 25.4 9 Oeste 21 Oeste 0 1014.2 -1.8 43
2019-05-07 14:00:00 23.9 6 Oeste 17 Oeste 0 1014.8 -1.3 47
2019-05-07 13:00:00 22.4 8 Sudoeste 15 Oeste 0 1015.4 -0.8 56
2019-05-07 12:00:00 20.8 3 Sur 13 Sur 0 1016 -0.1 63
2019-05-07 11:00:00 19.5 6 Sudoeste 13 Sudoeste 0 1016.1 0.1 71
2019-05-07 10:00:00 17.4 5 Sur 11 Sudeste 0 1016.2 0.7 79
2019-05-07 09:00:00 14.7 8 Sudeste 11 Sudeste 0 1016.1 0.5 90
2019-05-07 08:00:00 12.2 0 Calma 8 Sudeste 0 1016 0.2 95
2019-05-07 07:00:00 12.2 6 Sur 11 Sur 0 1015.5 -0.2 96
2019-05-07 06:00:00 12.7 3 Sur 13 Sur 0 1015.6 -0.2 93
2019-05-07 05:00:00 13.6 6 Sudoeste 15 Sudoeste 0 1015.8 -0.2 91
2019-05-07 04:00:00 14.2 7 Sudoeste 17 Sur 0 1015.7 0 90
2019-05-07 03:00:00 14.1 14 Sur 18 Sur 0 1015.8 -0.3 92
2019-05-07 02:00:00 14.8 12 Sur 21 Sur 0 1016 0 88
2019-05-07 01:00:00 15.7 18 Sur 24 Sur 0 1015.7 0.5 85
2019-05-07 00:00:00 16.3 12 Sur 21 Sudoeste 0 1016.1 1.6 82
2019-05-06 23:00:00 17.5 15 Sudoeste 22 Sudoeste 0 1016 2 76
2019-05-06 22:00:00 18.9 13 Sudoeste 26 Sudoeste 0 1015.2 1.4 69
2019-05-06 21:00:00 21.5 20 Sudoeste 35 Sudoeste 0 1014.5 0.5 55
2019-05-06 20:00:00 24.2 25 Sudoeste 35 Sudoeste 0 1014 -0.4 47
2019-05-06 19:00:00 26.2 18 Sudoeste 30 Sudoeste 0 1013.8 -1.3 43
2019-05-06 18:00:00 26.6 13 Oeste 24 Oeste 0 1014 -1.8 42
2019-05-06 17:00:00 26.3 8 Sudoeste 24 Oeste 0 1014.4 -1.7 42
2019-05-06 16:00:00 24.9 10 Sudoeste 22 Oeste 0 1015.1 -1.5 52
2019-05-06 15:00:00 23.6 10 Sudoeste 24 Oeste 0 1015.8 -1.1 58
2019-05-06 14:00:00 22.4 8 Oeste 18 Oeste 0 1016.1 -0.6 61
2019-05-06 13:00:00 21 4 Sur 15 Oeste 0 1016.6 0.1 65
2019-05-06 12:00:00 19.3 6 Sudoeste 17 Sudeste 0 1016.9 0.5 71
2019-05-06 11:00:00 17.5 2 Oeste 9 Sur 0 1016.7 0.8 77
2019-05-06 10:00:00 16.4 4 Sudeste 11 Sur 0 1016.5 1 81
2019-05-06 09:00:00 15.7 6 Sur 13 Sur 0 1016.4 1.4 85
2019-05-06 08:00:00 15.1 9 Sur 13 Sur 0 1015.9 1 86
2019-05-06 07:00:00 15 7 Sur 11 Sur 0 1015.5 0.6 86
2019-05-06 06:00:00 15 9 Sur 11 Sur 0 1015 0.1 86
2019-05-06 05:00:00 15.4 6 Sur 13 Sudoeste 0 1014.9 -0.1 86
2019-05-06 04:00:00 15 8 Sudoeste 17 Sudoeste 0 1014.9 0 89
2019-05-06 03:00:00 14.6 8 Sudoeste 17 Sudoeste 0 1014.9 0.1 90
2019-05-06 02:00:00 15 10 Sudoeste 22 Sudoeste 0 1015 0.4 89
2019-05-06 01:00:00 15.2 15 Sudoeste 22 Sudoeste 0 1014.9 1.1 88
2019-05-06 00:00:00 15.6 17 Sudoeste 30 Sudoeste 0 1014.8 1.5 84
2019-05-05 23:00:00 16.5 20 Sudoeste 30 Sudoeste 0 1014.6 1.6 78
2019-05-05 22:00:00 17.6 21 Sudoeste 32 Sudoeste 0 1013.8 0.9 71
2019-05-05 21:00:00 19.4 22 Sudoeste 32 Sudoeste 0 1013.3 0.3 63
2019-05-05 20:00:00 21.4 24 Sudoeste 33 Sudoeste 0 1013 -0.4 59
2019-05-05 19:00:00 22.7 22 Sudoeste 35 Sudoeste 0 1012.9 -1.2 58
2019-05-05 18:00:00 22.8 23 Sudoeste 33 Sudoeste 0 1013 -1.5 58
2019-05-05 17:00:00 22.8 19 Sudoeste 30 Sudoeste 0 1013.4 -1.3 59
2019-05-05 16:00:00 22.4 14 Sudoeste 24 Sudoeste 0 1014.1 -0.8 61
2019-05-05 15:00:00 22.2 14 Sudoeste 26 Oeste 0 1014.5 -0.1 60
2019-05-05 14:00:00 21.5 10 Sudoeste 22 Sudoeste 0 1014.7 0.7 62
2019-05-05 13:00:00 19.6 12 Sudoeste 18 Sudoeste 0 1014.9 1.3 68
2019-05-05 12:00:00 18.4 9 Sudoeste 17 Sudoeste 0 1014.6 1.4 72
2019-05-05 11:00:00 18 9 Sudoeste 17 Sudoeste 0 1014 1.3 73
2019-05-05 10:00:00 17.3 10 Sudoeste 17 Sudoeste 0 1013.6 1.6 74
2019-05-05 09:00:00 16.6 10 Sudoeste 17 Sudoeste 0 1013.2 1.5 77
2019-05-05 08:00:00 15.9 11 Sudoeste 21 Sudoeste 0 1012.7 1 79
2019-05-05 07:00:00 15.4 10 Sudoeste 18 Sudoeste 0 1012 0.4 82
2019-05-05 06:00:00 15 13 Sudoeste 18 Sudoeste 0 1011.7 -0.2 85
2019-05-05 05:00:00 15.3 11 Sudoeste 18 Sudoeste 0 1011.7 -0.5 84
2019-05-05 04:00:00 16 11 Sudoeste 17 Sudoeste 0 1011.6 -0.2 82
2019-05-05 03:00:00 16.1 10 Sudoeste 17 Sudoeste 0 1011.9 0.2 85
2019-05-05 02:00:00 15.4 8 Sur 15 Sudoeste 0 1012.2 0.6 87
2019-05-05 01:00:00 16.1 11 Sudoeste 24 Sudoeste 0 1011.8 0.7 84
2019-05-05 00:00:00 16.6 14 Oeste 24 Sudoeste 0 1011.7 1.2 82
2019-05-04 23:00:00 17.4 14 Sudoeste 32 Sudoeste 0 1011.6 1.7 78
2019-05-04 22:00:00 18.5 18 Sudoeste 33 Sudoeste 0 1011.1 1.3 73
2019-05-04 21:00:00 20 25 Sudoeste 39 Sudoeste 0 1010.5 0.6 68
2019-05-04 20:00:00 21.9 28 Sudoeste 39 Sudoeste 0 1009.9 -0.1 60
2019-05-04 19:00:00 23.9 23 Sudoeste 35 Sudoeste 0 1009.8 -0.6 54
2019-05-04 18:00:00 24.7 15 Sudoeste 30 Sudoeste 0 1009.9 -0.8 53
2019-05-04 17:00:00 24 14 Sudoeste 24 Sudoeste 0 1010 -1 55
2019-05-04 16:00:00 23.7 13 Sur 22 Sudoeste 0 1010.4 -0.8 57
2019-05-04 15:00:00 22.3 12 Sudoeste 21 Oeste 0 1010.7 -0.3 61
2019-05-04 14:00:00 21.4 10 Sudoeste 18 Sudoeste 0 1011 0.3 66
2019-05-04 13:00:00 20.7 9 Sur 17 Sur 0 1011.2 0.9 68
2019-05-04 12:00:00 20.1 9 Sudoeste 18 Sur 0 1011 1 68
2019-05-04 11:00:00 19.3 11 Sur 15 Sur 0 1010.7 1.5 71
2019-05-04 10:00:00 18.4 8 Sur 13 Sudoeste 0 1010.3 1.8 81
2019-05-04 09:00:00 17.8 5 Sur 9 Sur 0 1010 1.6 84
2019-05-04 08:00:00 17.4 7 Sur 17 Sur 0 1009.2 1.1 85
2019-05-04 07:00:00 17.3 9 Sur 17 Sur 0 1008.5 0.7 85
2019-05-04 06:00:00 17.4 7 Sur 17 Sur 0 1008.4 0.5 86
2019-05-04 05:00:00 17.6 10 Sudoeste 18 Sur 0 1008.1 0.1 86
2019-05-04 04:00:00 17.8 9 Sudoeste 22 Sudoeste 0 1007.8 0.1 85
2019-05-04 03:00:00 17.8 14 Sudoeste 30 Sudoeste 0 1007.9 0.5 86
2019-05-04 02:00:00 17.7 19 Sudoeste 30 Sudoeste 0 1008 1.1 86
2019-05-04 01:00:00 17.7 20 Sudoeste 33 Sudoeste 0 1007.7 1.8 86
2019-05-04 00:00:00 17.4 17 Sudoeste 33 Sudoeste 0 1007.4 2.2 86
2019-05-03 23:00:00 17.6 21 Sudoeste 33 Sudoeste 0 1006.9 2.5 87
2019-05-03 22:00:00 18.4 21 Sudoeste 37 Sudoeste 0 1005.9 1.5 83
2019-05-03 21:00:00 20.5 25 Sudoeste 37 Sudoeste 0 1005.2 0.5 73
2019-05-03 20:00:00 22.9 25 Sudoeste 45 Sudoeste 0 1004.4 -0.4 60
2019-05-03 19:00:00 24 30 Sudoeste 48 Sudoeste 0 1004.4 -0.6 53
2019-05-03 18:00:00 25.3 31 Sudoeste 46 Sudoeste 0 1004.7 -0.7 46
2019-05-03 17:00:00 26.3 31 Sudoeste 46 Oeste 0 1004.8 -1.2 42
2019-05-03 16:00:00 27.9 24 Sudoeste 41 Sudoeste 0 1005 -1.6 34
2019-05-03 15:00:00 27.1 18 Sudoeste 37 Oeste 0 1005.4 -1.5 32
2019-05-03 14:00:00 26.2 20 Sudoeste 33 Sudoeste 0 1006 -1.1 35
2019-05-03 13:00:00 24.6 17 Sudoeste 28 Oeste 0 1006.6 -0.4 37
2019-05-03 12:00:00 23.8 14 Oeste 28 Sudoeste 0 1006.9 0.1 42
2019-05-03 11:00:00 21.9 10 Oeste 17 Oeste 0 1007.1 0.5 46
2019-05-03 10:00:00 19.9 3 Noroeste 8 Oeste 0 1007 0.7 56
2019-05-03 09:00:00 17.8 3 Norte 9 Norte 0 1006.8 0.5 66
2019-05-03 08:00:00 14.6 0 Calma -- -- 0 1006.6 0.1 83
2019-05-03 07:00:00 15.3 0 Calma 9 Oeste 0 1006.3 -0.4 75
2019-05-03 06:00:00 15.8 0 Calma 11 Oeste 0 1006.3 -0.3 71
2019-05-03 05:00:00 15.8 9 Oeste 15 Oeste 0 1006.5 -0.6 74
2019-05-03 04:00:00 17 13 Oeste 18 Oeste 0 1006.7 -0.3 69
2019-05-03 03:00:00 17.9 9 Oeste 28 Oeste 0 1006.6 -0.2 64
2019-05-03 02:00:00 19.3 6 Norte 22 Oeste 0 1007.1 1.1 60
2019-05-03 01:00:00 19.7 12 Oeste 22 Oeste 0 1007 2 58
2019-05-03 00:00:00 20.6 12 Sudoeste 22 Sudoeste 0 1006.8 2.7 52
2019-05-02 23:00:00 20.7 13 Oeste 26 Oeste 0 1006 2.2 52
2019-05-02 22:00:00 22.6 20 Oeste 30 Oeste 0 1005 1.7 46
2019-05-02 21:00:00 25.2 10 Oeste 32 Sudoeste 0 1004.1 0.6 38
2019-05-02 20:00:00 27.8 19 Sudoeste 39 Sudoeste 0 1003.8 -0.1 33
2019-05-02 19:00:00 30.5 19 Sur 33 Sudeste 0 1003.3 -1.1 28
2019-05-02 18:00:00 31 18 Este 28 Sudeste 0 1003.5 -1.4 25
2019-05-02 17:00:00 30.7 19 Sudeste 37 Sudeste 0 1003.9 -1.6 26
2019-05-02 16:00:00 30.6 22 Este 41 Este 0 1004.4 -1.6 26
2019-05-02 15:00:00 30.2 20 Este 39 Este 0 1004.9 -1.5 25
2019-05-02 14:00:00 29.6 25 Este 39 Este 0 1005.5 -0.9 25
2019-05-02 13:00:00 28.5 22 Este 35 Este 0 1006 -0.3 28
2019-05-02 12:00:00 26.3 19 Este 30 Este 0 1006.4 0.1 34
2019-05-02 11:00:00 23.5 20 Este 32 Este 0 1006.4 0.5 47
2019-05-02 10:00:00 21.1 13 Nordeste 18 Este 0 1006.3 0.7 51
2019-05-02 09:00:00 17 13 Nordeste 18 Nordeste 0 1006.3 0.7 69
2019-05-02 08:00:00 13.6 8 Norte 11 Norte 0 1005.9 0.3 85
2019-05-02 07:00:00 13.8 7 Nordeste 9 Nordeste 0 1005.6 -0.3 85
2019-05-02 06:00:00 13.8 6 Sur 13 Sudeste 0 1005.6 -0.7 85
2019-05-02 05:00:00 14.8 10 Sudeste 15 Sudeste 0 1005.6 -1.1 82
2019-05-02 04:00:00 15.5 5 Nordeste 9 Sudeste 0 1005.9 -0.7 80
2019-05-02 03:00:00 16.2 0 Calma 11 Sudeste 0 1006.3 0 77
2019-05-02 02:00:00 17.5 10 Sur 18 Sur 0 1006.7 0.9 69
2019-05-02 01:00:00 19.7 13 Sudoeste 24 Sur 0 1006.6 1.5 59
2019-05-02 00:00:00 20.3 15 Sur 24 Sur 0 1006.3 1.7 61
2019-05-01 23:00:00 20.5 9 Sur 18 Oeste 0 1005.8 1.6 64
2019-05-01 22:00:00 22.1 15 Oeste 26 Oeste 0 1005.1 1 58
2019-05-01 21:00:00 25.1 18 Oeste 32 Sudoeste 0 1004.6 0.3 47
2019-05-01 20:00:00 29.7 21 Sudoeste 37 Sudoeste 0 1004.2 -0.7 33
2019-05-01 19:00:00 31.3 6 Este 21 Este 0 1004.1 -1.5 18
2019-05-01 18:00:00 31 11 Este 24 Este 0 1004.3 -2 20
2019-05-01 17:00:00 31 14 Este 30 Este 0 1004.9 -2 21
2019-05-01 16:00:00 30.8 12 Este 30 Este 0 1005.6 -1.9 23
2019-05-01 15:00:00 29.8 11 Este 24 Nordeste 0 1006.3 -1.8 28
2019-05-01 14:00:00 28.6 9 Nordeste 21 Nordeste 0 1006.9 -1.5 31
2019-05-01 13:00:00 26.4 11 Nordeste 21 Nordeste 0 1007.5 -1 40
2019-05-01 12:00:00 24.9 9 Este 22 Este 0 1008.1 -0.2 44
2019-05-01 11:00:00 22.3 5 Nordeste 13 Nordeste 0 1008.4 0.4 56
2019-05-01 10:00:00 19.9 4 Este 9 Este 0 1008.5 0.8 63
2019-05-01 09:00:00 16.3 0 Calma 9 Norte 0 1008.3 0.5 80
2019-05-01 08:00:00 14.4 0 Calma 8 Sudeste 0 1008 0.1 86
2019-05-01 07:00:00 13.7 7 Sudeste 9 Sudeste 0 1007.7 -0.2 89
2019-05-01 06:00:00 14.4 7 Sudeste 8 Este 0 1007.8 -0.4 86
2019-05-01 05:00:00 15.3 0 Calma 5 Sur 0 1007.9 -0.7 84
2019-05-01 04:00:00 15.7 4 Sudeste 11 Sur 0 1007.9 -0.9 81
2019-05-01 03:00:00 17.1 10 Sur 24 Sur 0 1008.2 -0.8 73
2019-05-01 02:00:00 18.4 17 Sur 22 Sur 0 1008.6 -0.5 60
2019-05-01 01:00:00 20.1 14 Sur 22 Sur 0 1008.8 0.3 55
2019-05-01 00:00:00 20.7 13 Sur 18 Sudoeste 0 1009 1.1 56
2019-04-30 23:00:00 22 12 Sudoeste 17 Sudoeste 0 1009.1 1.3 54
2019-04-30 22:00:00 23.1 15 Oeste 22 Oeste 0 1008.5 0.4 55
2019-04-30 21:00:00 27.8 4 Sudoeste 9 Sudoeste 0 1007.9 -0.7 33
2019-04-30 20:00:00 29.2 6 Sur 13 Sur 0 1007.8 -1.5 30
2019-04-30 19:00:00 30.6 5 Sudoeste 15 Sudoeste 0 1008.1 -2 28
2019-04-30 18:00:00 30.5 7 Sudoeste 17 Oeste 0 1008.6 -2.2 31
2019-04-30 17:00:00 29.7 4 Oeste 15 Sudoeste 0 1009.3 -2.2 31
2019-04-30 16:00:00 28.6 4 Oeste 21 Sudoeste 0 1010.1 -2.2 33
2019-04-30 15:00:00 27.1 5 Noroeste 13 Oeste 0 1010.8 -1.9 36
2019-04-30 14:00:00 25.7 5 Sudoeste 15 Noroeste 0 1011.5 -1.2 39
2019-04-30 13:00:00 23.9 4 Oeste 13 Noroeste 0 1012.3 -0.5 42
2019-04-30 12:00:00 22.4 4 Norte 11 Norte 0 1012.7 -0.1 48
2019-04-30 11:00:00 20.9 5 Norte 15 Nordeste 0 1012.7 0.3 54
2019-04-30 10:00:00 19.2 2 Norte 11 Nordeste 0 1012.8 0.8 61
2019-04-30 09:00:00 16.3 5 Sudeste 8 Este 0 1012.8 0.6 80
2019-04-30 08:00:00 12.4 7 Este -- -- 0 1012.4 0.3 91
2019-04-30 07:00:00 12.8 6 Este 8 Este 0 1012 -0.1 91
2019-04-30 06:00:00 13.2 3 Sur 9 Sur 0 1012.2 -0.2 90
2019-04-30 05:00:00 14.4 5 Oeste 11 Sudoeste 0 1012.1 -0.4 88
2019-04-30 04:00:00 14.3 6 Sur 15 Sur 0 1012.1 -0.1 87
2019-04-30 03:00:00 15.6 11 Sur 18 Sur 0 1012.4 0.3 69
2019-04-30 02:00:00 16.7 14 Sur 21 Sur 0 1012.5 0.9 58
2019-04-30 01:00:00 18.1 10 Sudoeste 15 Sudoeste 0 1012.2 1.3 52
2019-04-30 00:00:00 18.2 6 Sur 11 Sudoeste 0 1012.1 2 55
2019-04-29 23:00:00 20.5 10 Sudoeste 22 Sudoeste 0 1011.6 1.6 44
2019-04-29 22:00:00 22.6 16 Sudoeste 24 Sudoeste 0 1010.9 0.7 40
2019-04-29 21:00:00 27 9 Sudoeste 22 Sudoeste 0 1010.1 -0.2 27
2019-04-29 20:00:00 29.7 0 Calma 11 Sudoeste 0 1010 -0.6 26
2019-04-29 19:00:00 29.6 4 Oeste 13 Sudoeste 0 1010.2 -0.9 24
2019-04-29 18:00:00 29.8 3 Noroeste 13 Noroeste 0 1010.3 -1.2 22
2019-04-29 17:00:00 29.4 4 Sudeste 15 Sudeste 0 1010.6 -1.7 22
2019-04-29 16:00:00 28.4 6 Noroeste 17 Sur 0 1011.1 -1.9 24
2019-04-29 15:00:00 27.8 6 Sur 22 Sudeste 0 1011.5 -1.7 25
2019-04-29 14:00:00 26.7 10 Nordeste 17 Este 0 1012.3 -0.8 26
2019-04-29 13:00:00 25.4 12 Sudeste 18 Sudeste 0 1013 -0.3 30
2019-04-29 12:00:00 23.9 10 Sudeste 18 Sudeste 0 1013.2 0 31
2019-04-29 11:00:00 22.4 12 Este 18 Este 0 1013.1 0.2 36
2019-04-29 10:00:00 18 9 Nordeste 21 Nordeste 0 1013.3 0.6 52
2019-04-29 09:00:00 13.3 8 Norte 13 Norte 0 1013.2 0.5 75
2019-04-29 08:00:00 12 10 Norte 13 Nordeste 0 1012.9 -0.3 79
2019-04-29 07:00:00 12.1 7 Norte 9 Norte 0 1012.7 -0.9 84
2019-04-29 06:00:00 12.7 5 Este 13 Nordeste 0 1012.7 -1.4 82
2019-04-29 05:00:00 14.4 6 Oeste 9 Oeste 0 1013.2 -1.2 69
2019-04-29 04:00:00 -- 8 Oeste 9 Oeste 0 1013.6 -0.7 --
2019-04-29 03:00:00 14.8 0 Calma 8 Sur 0 1014.1 0.3 76
2019-04-29 02:00:00 15.3 5 Sudeste 8 Sur 0 1014.4 1.1 70
2019-04-29 01:00:00 16.9 5 Sur 18 Sudoeste 0 1014.3 1.6 56
2019-04-29 00:00:00 19.4 16 Sudoeste 28 Sudoeste 0 1013.8 1.6 45
2019-04-28 23:00:00 19.8 15 Sur 24 Sur 0 1013.3 1.3 42
2019-04-28 22:00:00 19.3 11 Sudeste 17 Sudeste 0 1012.7 0.4 45
2019-04-28 21:00:00 -- 11 Sudeste 21 Este 0 1012.2 -0.2 --
2019-04-28 20:00:00 27.1 17 Este 24 Este 0 1012 -0.8 23
2019-04-28 19:00:00 27.1 16 Este 33 Este 0 1012.3 -1.3 24
2019-04-28 18:00:00 28.2 20 Este 35 Este 0 1012.4 -1.8 21
2019-04-28 17:00:00 28.2 24 Este 37 Este 0 1012.8 -2.1 22
2019-04-28 16:00:00 27.6 22 Este 37 Este 0 1013.6 -2.1 25
2019-04-28 15:00:00 26.5 22 Este 39 Este 0 1014.2 -1.9 27
2019-04-28 14:00:00 25.7 23 Este 39 Este 0 1014.9 -1.3 29
2019-04-28 13:00:00 24.6 26 Este 42 Este 0 1015.7 -0.8 31
2019-04-28 12:00:00 23.6 27 Este 41 Este 0 1016.1 -0.5 34
2019-04-28 11:00:00 20.6 20 Este 32 Este 0 1016.2 -0.3 46
2019-04-28 10:00:00 18.8 20 Nordeste 28 Nordeste 0 1016.5 0.2 50
2019-04-28 09:00:00 15.3 15 Nordeste 22 Este 0 1016.6 -0.1 61
2019-04-28 08:00:00 13 13 Nordeste 18 Nordeste 0 1016.5 -0.5 68
2019-04-28 07:00:00 11.7 14 Nordeste 18 Nordeste 0 1016.3 -1.1 77
2019-04-28 06:00:00 13.6 13 Nordeste 24 Nordeste 0 1016.7 -1.2 64
2019-04-28 05:00:00 14.5 14 Nordeste 26 Nordeste 0 1017 -1.2 60
2019-04-28 04:00:00 13.9 13 Nordeste 18 Este 0 1017.4 -1 64
2019-04-28 03:00:00 13.4 4 Este 11 Este 0 1017.9 -0.3 75
2019-04-28 02:00:00 14 0 Calma 9 Nordeste 0 1018.2 0.2 77
2019-04-28 01:00:00 14.5 8 Este 11 Este 0 1018.4 1 75
2019-04-28 00:00:00 15.3 6 Sudeste 15 Sudeste 0 1018.2 1.3 72
2019-04-27 23:00:00 16.3 12 Este 13 Este 0 1018 1.3 74
2019-04-27 22:00:00 19.7 5 Este 9 Este 0 1017.4 0.7 60
2019-04-27 21:00:00 23.8 8 Este 18 Este 0 1016.9 -0.1 41
2019-04-27 20:00:00 25.5 17 Sudeste 26 Este 0 1016.7 -0.8 35
2019-04-27 19:00:00 26.4 17 Nordeste 30 Este 0 1016.7 -1.5 30
2019-04-27 18:00:00 26.7 19 Este 42 Nordeste 0 1017 -2 31
2019-04-27 17:00:00 26.5 17 Este 35 Este 0 1017.5 -2.1 32
2019-04-27 16:00:00 25.9 17 Este 35 Este 0 1018.2 -2.1 33
2019-04-27 15:00:00 25 21 Este 41 Este 0 1019 -1.5 35
2019-04-27 14:00:00 24.1 22 Este 39 Este 0 1019.6 -0.8 35
2019-04-27 13:00:00 23.2 27 Este 41 Este 0 1020.3 -0.3 36
2019-04-27 12:00:00 21.2 24 Este 39 Este 0 1020.5 0.1 45
2019-04-27 11:00:00 19.1 25 Este 41 Este 0 1020.4 0.2 49
2019-04-27 10:00:00 16.6 23 Nordeste 33 Nordeste 0 1020.6 0.6 59
2019-04-27 09:00:00 13.9 17 Nordeste 28 Este 0 1020.4 0.4 69
2019-04-27 08:00:00 12.5 17 Nordeste 26 Nordeste 0 1020.2 0.2 71
2019-04-27 07:00:00 10 12 Nordeste 15 Nordeste 0 1020 0.1 86
2019-04-27 06:00:00 10.5 5 Nordeste 13 Nordeste 0 1020 -0.4 82
2019-04-27 05:00:00 10.3 4 Sudeste 11 Sur 0 1020 -0.9 85
2019-04-27 04:00:00 11.7 8 Nordeste 17 Nordeste 0 1019.9 -1.1 78
2019-04-27 03:00:00 12.7 10 Nordeste 15 Nordeste 0 1020.4 -0.8 74
2019-04-27 02:00:00 12.6 8 Nordeste 15 Nordeste 0 1020.9 -0.2 76
2019-04-27 01:00:00 12.9 8 Nordeste 13 Nordeste 0 1021 0.5 78
2019-04-27 00:00:00 14.2 8 Nordeste 13 Nordeste 0 1021.2 1.3 74
2019-04-26 23:00:00 15.8 9 Nordeste 15 Norte 0 1021.1 1.4 67
2019-04-26 22:00:00 17.8 8 Norte 11 Norte 0 1020.5 0.9 56
2019-04-26 21:00:00 19.9 6 Nordeste 26 Norte 0 1019.9 0.3 47
2019-04-26 20:00:00 22 16 Norte 24 Norte 0 1019.7 -0.5 38
2019-04-26 19:00:00 22.4 12 Norte 24 Este 0 1019.6 -1.3 36
2019-04-26 18:00:00 22.3 14 Nordeste 32 Norte 0 1019.6 -1.9 37
2019-04-26 17:00:00 21.8 14 Norte 33 Nordeste 0 1020.2 -1.8 39
2019-04-26 16:00:00 20.9 18 Nordeste 32 Norte 0 1020.9 -1.6 44
2019-04-26 15:00:00 19.6 9 Nordeste 26 Nordeste 0 1021.5 -1.3 51
2019-04-26 14:00:00 18.5 12 Norte 21 Nordeste 0 1022 -0.6 55
2019-04-26 13:00:00 17.4 9 Nordeste 22 Nordeste 0 1022.5 0.1 57
2019-04-26 12:00:00 16.4 12 Nordeste 21 Nordeste 0 1022.8 0.6 61
2019-04-26 11:00:00 15 11 Nordeste 22 Nordeste 0 1022.6 1.1 65
2019-04-26 10:00:00 13 9 Nordeste 15 Nordeste 0 1022.4 1.7 80
2019-04-26 09:00:00 10.3 0 Calma 9 Norte 0 1022.2 1.9 88
2019-04-26 08:00:00 7.3 0 Calma 9 Este 0 1021.5 1.5 95
2019-04-26 07:00:00 7.7 0 Calma -- -- 0 1020.7 1.1 94
2019-04-26 06:00:00 8.1 0 Calma 4 Norte 0 1020.3 0.6 93
2019-04-26 05:00:00 8 0 Calma 8 Este 0 1020 0.3 93
2019-04-26 04:00:00 9.1 3 Norte 13 Nordeste 0 1019.6 0.2 87
2019-04-26 03:00:00 9.5 6 Norte 11 Noroeste 0 1019.7 0.9 84
2019-04-26 02:00:00 10.5 5 Noroeste 15 Noroeste 0 1019.7 1.8 80
2019-04-26 01:00:00 10.6 11 Oeste 13 Oeste 0 1019.4 2.8 79
2019-04-26 00:00:00 12.3 10 Oeste 21 Oeste 0 1018.8 3.4 73
2019-04-25 23:00:00 12.6 14 Oeste 21 Oeste 0 1017.9 3.4 71
2019-04-25 22:00:00 13.8 13 Oeste 24 Oeste 0 1016.6 2.6 65
2019-04-25 21:00:00 17.1 17 Oeste 32 Oeste 0 1015.4 1.9 50
2019-04-25 20:00:00 19.4 28 Oeste 42 Oeste 0 1014.5 1.3 40
2019-04-25 19:00:00 20.2 29 Oeste 41 Oeste 0 1014 1 44
2019-04-25 18:00:00 20.1 21 Oeste 37 Oeste 0 1013.5 0.6 50
2019-04-25 17:00:00 19.3 29 Oeste 42 Oeste 0 1013.2 0 54
2019-04-25 16:00:00 20.3 24 Oeste 39 Sudoeste 0 1013 -0.3 49
2019-04-25 15:00:00 19.9 25 Oeste 39 Oeste 0 1012.9 -0.3 54
2019-04-25 14:00:00 17.6 28 Noroeste 37 Noroeste 0 1013.2 0.6 58
2019-04-25 13:00:00 18.4 21 Oeste 37 Oeste 0 1013.3 1.3 58
2019-04-25 12:00:00 16.9 24 Oeste 35 Oeste 0 1013.2 1.9 63
2019-04-25 11:00:00 16.3 15 Oeste 32 Oeste 0 1012.6 2.3 75
2019-04-25 10:00:00 15.2 14 Oeste 24 Oeste 0 1012 2.7 82
2019-04-25 09:00:00 14.3 15 Oeste 24 Oeste 0 1011.3 2.6 92
2019-04-25 08:00:00 13.9 15 Sudoeste 24 Oeste 0 1010.3 1.5 94
2019-04-25 07:00:00 14 16 Oeste 26 Sudoeste 0 1009.3 1.1 95
2019-04-25 06:00:00 13 10 Sudoeste 26 Oeste 0.3 1008.7 0.4 98
2019-04-25 05:00:00 12.7 17 Noroeste 32 Sudoeste 0.8 1008.8 0 97
2019-04-25 04:00:00 15 23 Sudoeste 41 Oeste 0.1 1008.2 -0.4 94
2019-04-25 03:00:00 15.3 30 Sudoeste 42 Sudoeste 0 1008.3 -0.4 94
2019-04-25 02:00:00 15.2 28 Sudoeste 45 Sudoeste 1.2 1008.8 0.5 94
2019-04-25 01:00:00 15.5 31 Sudoeste 52 Sudoeste 0.1 1008.6 0.7 94
2019-04-25 00:00:00 15.8 35 Sudoeste 52 Sudoeste 0 1008.7 1.2 93
2019-04-24 23:00:00 15.5 31 Sudoeste 52 Sudoeste 7.2 1008.3 1.1 95
2019-04-24 22:00:00 15.3 30 Sudoeste 55 Sudoeste 0.6 1007.9 0.8 96
2019-04-24 21:00:00 15.7 32 Sudoeste 55 Sudoeste 0 1007.5 0.3 90
2019-04-24 20:00:00 16.2 42 Sudoeste 67 Sudoeste 0 1007.2 0.3 86
2019-04-24 19:00:00 15.8 37 Sudoeste 59 Sudoeste 0.1 1007.1 -0.4 90
2019-04-24 18:00:00 15.1 37 Sudoeste 58 Sur 1.5 1007.2 -0.3 93
2019-04-24 17:00:00 15.8 25 Sur 54 Sudoeste 2.1 1006.9 0 88
2019-04-24 16:00:00 16.2 39 Sudoeste 63 Sudoeste 0.2 1007.5 0.4 85
2019-04-24 15:00:00 15.2 43 Sudoeste 68 Sudoeste 0.5 1007.5 0.6 88
2019-04-24 14:00:00 15.3 28 Sudoeste 63 Sudoeste 0.7 1006.9 0.4 89
2019-04-24 13:00:00 15.9 32 Sudoeste 61 Sudoeste 0 1007.1 0.9 77
2019-04-24 12:00:00 16.5 38 Sudoeste 61 Sudoeste 0 1006.9 0.9 69
2019-04-24 11:00:00 15.8 23 Sudoeste 37 Sudoeste 0 1006.5 1.1 75
2019-04-24 10:00:00 14.3 12 Sur 26 Sudoeste 0 1006.2 1.2 79
2019-04-24 09:00:00 12.8 14 Sur 21 Sur 0 1006 1.1 85
2019-04-24 08:00:00 11 10 Sur 17 Sudoeste 0 1005.4 0.4 91
2019-04-24 07:00:00 9.9 12 Sur 17 Sur 0 1005 -0.2 95
2019-04-24 06:00:00 9.4 8 Sudeste 11 Sur 0 1004.9 -0.4 94
2019-04-24 05:00:00 9 10 Sur 13 Sur 0 1005 0 93
2019-04-24 04:00:00 10.4 0 Calma 13 Sudoeste 0 1005.2 0 85
2019-04-24 03:00:00 10.5 8 Sudoeste 13 Sudoeste 0 1005.3 0.7 83
2019-04-24 02:00:00 11.3 10 Sudoeste 26 Oeste 0 1005 0.8 73
2019-04-24 01:00:00 11.4 16 Sudoeste 26 Sudoeste 0 1005.2 1.9 76
2019-04-24 00:00:00 11.8 14 Sudoeste 30 Sudoeste 0 1004.6 2.1 75
2019-04-23 23:00:00 12.2 9 Oeste 26 Sudoeste 0 1004.2 2.3 76
2019-04-23 22:00:00 13.4 13 Sudoeste 30 Sudoeste 0 1003.3 2 66
2019-04-23 21:00:00 13.7 20 Sudoeste 35 Oeste 0 1002.5 1.8 64
2019-04-23 20:00:00 14.9 27 Oeste 42 Oeste 0 1001.9 1.6 57
2019-04-23 19:00:00 16.5 27 Oeste 45 Oeste 0 1001.3 1 45
2019-04-23 18:00:00 16.1 32 Oeste 48 Oeste 0 1000.7 0.1 47
2019-04-23 17:00:00 17.6 33 Oeste 48 Oeste 0 1000.3 -0.1 39
2019-04-23 16:00:00 16.9 34 Oeste 45 Noroeste 0 1000.3 -0.1 46
2019-04-23 15:00:00 12.8 24 Oeste 59 Oeste 0.2 1000.6 0.4 78
2019-04-23 14:00:00 12.9 11 Oeste 58 Noroeste 0.9 1000.4 0.6 76
2019-04-23 13:00:00 14.2 16 Oeste 46 Oeste 0.1 1000.4 1.1 74
2019-04-23 12:00:00 15.5 24 Oeste 41 Oeste 0 1000.2 1.6 57
2019-04-23 11:00:00 14 24 Oeste 37 Noroeste 0 999.8 2.2 67
2019-04-23 10:00:00 12.8 18 Oeste 26 Oeste 0 999.3 3.2 80
2019-04-23 09:00:00 11.4 15 Oeste 24 Oeste 0 998.6 2.2 88
2019-04-23 08:00:00 11.4 17 Oeste 24 Oeste 0 997.6 1.7 90
2019-04-23 07:00:00 11.6 16 Oeste 46 Oeste 2.7 996.1 -0.9 94
2019-04-23 06:00:00 12.9 26 Oeste 41 Sudoeste 4.5 996.4 -1.8 93
2019-04-23 05:00:00 14.3 19 Sur 37 Sur 0.4 995.9 -2.9 90
2019-04-23 04:00:00 14.9 21 Sudoeste 35 Sudoeste 0.6 997 -2.1 83
2019-04-23 03:00:00 15.1 21 Sudoeste 32 Sudoeste 0 998.2 -1.2 82
2019-04-23 02:00:00 14.9 22 Sudoeste 35 Sudoeste 0 998.8 -0.4 78
2019-04-23 01:00:00 15.1 22 Sudoeste 41 Sudoeste 0 999.1 0.3 80
2019-04-23 00:00:00 15.3 27 Sudoeste 50 Sudoeste 0 999.4 1.1 80